createdAt,value
2019-01-19T00:01:54.893Z,101178.00
2019-01-19T00:04:59.737Z,101183.00
2019-01-19T00:07:45.938Z,101175.00
2019-01-19T00:10:37.106Z,101172.00
2019-01-19T00:13:14.946Z,101173.00
2019-01-19T00:15:58.736Z,101159.00
2019-01-19T00:18:54.639Z,101161.00
2019-01-19T00:21:38.179Z,101167.00
2019-01-19T00:24:21.904Z,101165.00
2019-01-19T00:27:11.792Z,101166.00
2019-01-19T00:30:17.059Z,101160.00
2019-01-19T00:32:54.739Z,101165.00
2019-01-19T00:35:48.323Z,101161.00
2019-01-19T00:38:42.448Z,101161.00
2019-01-19T00:41:29.099Z,101157.00
2019-01-19T00:44:06.571Z,101159.00
2019-01-19T00:46:43.672Z,101163.00
2019-01-19T00:49:19.027Z,101147.00
2019-01-19T00:52:17.966Z,101150.00
2019-01-19T00:54:58.851Z,101143.00
2019-01-19T00:57:42.113Z,101139.00
2019-01-19T01:00:26.074Z,101141.00
2019-01-19T01:03:12.778Z,101136.00
2019-01-19T01:05:48.478Z,101129.00
2019-01-19T01:08:41.232Z,101127.00
2019-01-19T01:11:22.833Z,101126.00
2019-01-19T01:14:13.430Z,101118.00
2019-01-19T01:16:54.893Z,101122.00
2019-01-19T01:19:49.542Z,101126.00
2019-01-19T01:22:34.559Z,101117.00
2019-01-19T01:25:09.863Z,101117.00
2019-01-19T01:27:48.514Z,101111.00
2019-01-19T01:30:25.943Z,101114.00
2019-01-19T01:33:01.508Z,101104.00
2019-01-19T01:36:07.835Z,101106.00
2019-01-19T01:38:51.400Z,101105.00
2019-01-19T01:41:31.971Z,101096.00
2019-01-19T01:44:16.040Z,101086.00
2019-01-19T01:47:22.862Z,101086.00
2019-01-19T01:50:17.741Z,101080.00
2019-01-19T01:52:59.341Z,101080.00
2019-01-19T01:55:37.462Z,101072.00
2019-01-19T01:58:12.536Z,101067.00
2019-01-19T02:00:52.088Z,101076.00
2019-01-19T02:03:32.993Z,101095.00
2019-01-19T02:06:08.224Z,101120.00
2019-01-19T02:08:55.485Z,101113.00
2019-01-19T02:11:39.843Z,101122.00
2019-01-19T02:14:14.687Z,101108.00
2019-01-19T02:17:12.754Z,101118.00
2019-01-19T02:19:51.337Z,101117.00
2019-01-19T02:22:35.474Z,101111.00
2019-01-19T02:25:31.978Z,101113.00
2019-01-19T02:28:17.697Z,101119.00
2019-01-19T02:31:07.707Z,101115.00
2019-01-19T02:33:42.644Z,101119.00
2019-01-19T02:36:17.266Z,101109.00
2019-01-19T02:39:11.106Z,101095.00
2019-01-19T02:42:11.609Z,101104.00
2019-01-19T02:45:09.285Z,101090.00
2019-01-19T02:47:44.119Z,101083.00
2019-01-19T02:50:22.979Z,101074.00
2019-01-19T02:53:04.807Z,101071.00
2019-01-19T02:55:40.860Z,101063.00
2019-01-19T02:58:27.847Z,101058.00
2019-01-19T03:01:05.936Z,101063.00
2019-01-19T03:03:46.152Z,101062.00
2019-01-19T03:06:37.655Z,101063.00
2019-01-19T03:09:12.460Z,101058.00
2019-01-19T03:12:15.610Z,101044.00
2019-01-19T03:15:02.550Z,101040.00
2019-01-19T03:17:52.166Z,101041.00
2019-01-19T03:20:26.728Z,101032.00
2019-01-19T03:23:11.036Z,101030.00
2019-01-19T03:26:03.720Z,101026.00
2019-01-19T03:29:06.548Z,101022.00
2019-01-19T03:31:50.444Z,101032.00
2019-01-19T03:34:25.449Z,101022.00
2019-01-19T03:37:09.016Z,101002.00
2019-01-19T03:40:06.768Z,101003.00
2019-01-19T03:42:59.497Z,100986.00
2019-01-19T03:45:40.417Z,100981.00
2019-01-19T03:48:33.041Z,100977.00
2019-01-19T03:51:08.360Z,100980.00
2019-01-19T03:53:49.853Z,100979.00
2019-01-19T03:56:33.960Z,100974.00
2019-01-19T03:59:20.882Z,100974.00
2019-01-19T04:02:23.225Z,100970.00
2019-01-19T04:05:20.316Z,100973.00
2019-01-19T04:08:01.405Z,100961.00
2019-01-19T04:10:44.651Z,100951.00
2019-01-19T04:13:42.002Z,100950.00
2019-01-19T04:16:22.483Z,100948.00
2019-01-19T04:19:12.239Z,100948.00
2019-01-19T04:21:46.778Z,100943.00
2019-01-19T04:24:24.317Z,100943.00
2019-01-19T04:26:56.983Z,100936.00
2019-01-19T04:29:29.978Z,100933.00
2019-01-19T04:32:04.089Z,100941.00
2019-01-19T04:34:37.384Z,100943.00
2019-01-19T04:37:10.183Z,100946.00
2019-01-19T04:39:43.079Z,100948.00
2019-01-19T04:42:16.200Z,100940.00
2019-01-19T04:44:48.838Z,100948.00
2019-01-19T04:47:22.030Z,100953.00
2019-01-19T04:49:54.938Z,100940.00
2019-01-19T04:52:28.795Z,100947.00
2019-01-19T04:55:02.859Z,100955.00
2019-01-19T04:57:35.677Z,100945.00
2019-01-19T05:00:12.841Z,100957.00
2019-01-19T05:02:45.693Z,100951.00
2019-01-19T05:05:18.465Z,100943.00
2019-01-19T05:07:51.171Z,100945.00
2019-01-19T05:10:24.455Z,100944.00
2019-01-19T05:12:57.095Z,100950.00
2019-01-19T05:15:29.804Z,100954.00
2019-01-19T05:18:02.880Z,100947.00
2019-01-19T05:20:35.864Z,100937.00
2019-01-19T05:23:08.656Z,100934.00
2019-01-19T05:25:42.333Z,100935.00
2019-01-19T05:28:15.138Z,100937.00
2019-01-19T05:30:47.788Z,100946.00
2019-01-19T05:33:21.789Z,100952.00
2019-01-19T05:35:54.567Z,100939.00
2019-01-19T05:38:27.355Z,100945.00
2019-01-19T05:41:00.311Z,100940.00
2019-01-19T05:43:33.896Z,100941.00
2019-01-19T05:46:06.727Z,100945.00
2019-01-19T05:48:39.627Z,100942.00
2019-01-19T05:51:12.526Z,100949.00
2019-01-19T05:53:45.623Z,100945.00
2019-01-19T05:56:19.839Z,100943.00
2019-01-19T05:58:53.763Z,100953.00
2019-01-19T06:01:28.164Z,100955.00
2019-01-19T06:04:02.205Z,100954.00
2019-01-19T06:06:34.846Z,100954.00
2019-01-19T06:09:09.382Z,100956.00
2019-01-19T06:11:42.065Z,100957.00
2019-01-19T06:14:14.961Z,100966.00
2019-01-19T06:16:47.610Z,100958.00
2019-01-19T06:19:21.093Z,100952.00
2019-01-19T06:21:55.100Z,100956.00
2019-01-19T06:24:28.033Z,100957.00
2019-01-19T06:27:00.822Z,100961.00
2019-01-19T06:29:34.819Z,100961.00
2019-01-19T06:32:07.560Z,100957.00
2019-01-19T06:34:40.440Z,100971.00
2019-01-19T06:37:14.282Z,100980.00
2019-01-19T06:39:47.477Z,100971.00
2019-01-19T06:42:20.358Z,100965.00
2019-01-19T06:44:53.245Z,100965.00
2019-01-19T06:47:26.933Z,100976.00
2019-01-19T06:49:59.731Z,100970.00
2019-01-19T06:52:32.789Z,100977.00
2019-01-19T06:55:05.614Z,100984.00
2019-01-19T06:57:39.442Z,100997.00
2019-01-19T07:00:17.080Z,100993.00
2019-01-19T07:02:49.784Z,100991.00
2019-01-19T07:05:22.743Z,100995.00
2019-01-19T07:07:55.350Z,100986.00
2019-01-19T07:10:29.186Z,100985.00
2019-01-19T07:13:02.026Z,100985.00
2019-01-19T07:15:34.858Z,100992.00
2019-01-19T07:18:07.454Z,101000.00
2019-01-19T07:20:40.578Z,100996.00
2019-01-19T07:23:13.277Z,100997.00
2019-01-19T07:25:46.353Z,100993.00
2019-01-19T07:28:19.154Z,100993.00
2019-01-19T07:30:52.270Z,101001.00
2019-01-19T07:33:24.871Z,100991.00
2019-01-19T07:35:57.781Z,100990.00
2019-01-19T07:38:30.880Z,100995.00
2019-01-19T07:41:03.574Z,101000.00
2019-01-19T07:43:36.577Z,101001.00
2019-01-19T07:46:10.610Z,101004.00
2019-01-19T07:48:43.512Z,101005.00
2019-01-19T07:51:16.314Z,101000.00
2019-01-19T07:53:49.393Z,101000.00
2019-01-19T07:56:22.106Z,101000.00
2019-01-19T07:58:56.456Z,101002.00
2019-01-19T08:01:29.106Z,101011.00
2019-01-19T08:04:01.938Z,101008.00
2019-01-19T08:06:34.746Z,101013.00
2019-01-19T08:09:09.255Z,101008.00
2019-01-19T08:11:41.927Z,101009.00
2019-01-19T08:14:14.752Z,101002.00
2019-01-19T08:16:47.560Z,101011.00
2019-01-19T08:19:20.287Z,101014.00
2019-01-19T08:21:53.172Z,101018.00
2019-01-19T08:24:25.988Z,101022.00
2019-01-19T08:26:58.859Z,101022.00
2019-01-19T08:29:31.649Z,101024.00
2019-01-19T08:32:04.198Z,101025.00
2019-01-19T08:34:37.081Z,101025.00
2019-01-19T08:37:09.989Z,101031.00
2019-01-19T08:39:43.060Z,101035.00
2019-01-19T08:42:15.837Z,101026.00
2019-01-19T08:44:48.753Z,101028.00
2019-01-19T08:47:21.644Z,101029.00
2019-01-19T08:49:54.600Z,101034.00
2019-01-19T08:52:30.801Z,101036.00
2019-01-19T08:55:03.827Z,101038.00
2019-01-19T08:57:36.761Z,101040.00
2019-01-19T09:00:17.432Z,101044.00
2019-01-19T09:02:50.157Z,101046.00
2019-01-19T09:05:23.424Z,101034.00
2019-01-19T09:07:56.992Z,101030.00
2019-01-19T09:10:29.914Z,101042.00
2019-01-19T09:13:02.601Z,101051.00
2019-01-19T09:15:35.516Z,101046.00
2019-01-19T09:18:08.536Z,101044.00
2019-01-19T09:20:41.396Z,101036.00
2019-01-19T09:23:15.311Z,101030.00
2019-01-19T09:25:47.959Z,101029.00
2019-01-19T09:28:20.718Z,101029.00
2019-01-19T09:30:53.446Z,101038.00
2019-01-19T09:33:26.371Z,101032.00
2019-01-19T09:35:59.026Z,101040.00
2019-01-19T09:38:33.116Z,101036.00
2019-01-19T09:41:05.900Z,101040.00
2019-01-19T09:43:38.793Z,101050.00
2019-01-19T09:46:11.570Z,101049.00
2019-01-19T09:48:44.557Z,101046.00
2019-01-19T09:51:18.489Z,101038.00
2019-01-19T09:53:51.513Z,101056.00
2019-01-19T09:56:24.006Z,101044.00
2019-01-19T09:58:57.044Z,101040.00
2019-01-19T10:01:29.696Z,101038.00
2019-01-19T10:04:02.697Z,101039.00
2019-01-19T10:06:35.469Z,101039.00
2019-01-19T10:09:09.724Z,101037.00
2019-01-19T10:11:42.461Z,101041.00
2019-01-19T10:14:15.457Z,101040.00
2019-01-19T10:16:48.232Z,101032.00
2019-01-19T10:19:21.019Z,101024.00
2019-01-19T10:21:54.184Z,101030.00
2019-01-19T10:24:26.981Z,101033.00
2019-01-19T10:26:59.997Z,101018.00
2019-01-19T10:29:32.953Z,101020.00
2019-01-19T10:32:05.961Z,101026.00
2019-01-19T10:34:38.944Z,101024.00
2019-01-19T10:37:12.073Z,101029.00
2019-01-19T10:39:44.698Z,101036.00
2019-01-19T10:42:17.690Z,101032.00
2019-01-19T10:44:50.466Z,101032.00
2019-01-19T10:47:23.487Z,101033.00
2019-01-19T10:49:56.439Z,101033.00
2019-01-19T10:52:29.226Z,101028.00
2019-01-19T10:55:02.134Z,101027.00
2019-01-19T10:57:34.886Z,101030.00
2019-01-19T11:00:12.972Z,101026.00
2019-01-19T11:02:45.770Z,101024.00
2019-01-19T11:05:19.379Z,101026.00
2019-01-19T11:07:52.266Z,101024.00
2019-01-19T11:10:28.151Z,101018.00
2019-01-19T11:13:00.901Z,101016.00
2019-01-19T11:15:33.988Z,101024.00
2019-01-19T11:18:06.875Z,101017.00
2019-01-19T11:20:39.964Z,101017.00
2019-01-19T11:23:12.648Z,101017.00
2019-01-19T11:25:45.621Z,101022.00
2019-01-19T11:28:18.523Z,101016.00
2019-01-19T11:30:51.482Z,101020.00
2019-01-19T11:33:24.175Z,101006.00
2019-01-19T11:35:56.830Z,101004.00
2019-01-19T11:38:29.658Z,100996.00
2019-01-19T11:41:02.735Z,100998.00
2019-01-19T11:43:36.735Z,100989.00
2019-01-19T11:46:09.599Z,100994.00
2019-01-19T11:48:42.320Z,100996.00
2019-01-19T11:51:15.271Z,100988.00
2019-01-19T11:53:47.943Z,100984.00
2019-01-19T11:56:20.623Z,100983.00
2019-01-19T11:58:53.736Z,100990.00
2019-01-19T12:01:26.530Z,100980.00
2019-01-19T12:03:59.422Z,100979.00
2019-01-19T12:06:32.331Z,100982.00
2019-01-19T12:09:05.669Z,100975.00
2019-01-19T12:11:38.577Z,100976.00
2019-01-19T12:14:11.355Z,100970.00
2019-01-19T12:16:45.043Z,100967.00
2019-01-19T12:19:17.749Z,100951.00
2019-01-19T12:21:50.806Z,100948.00
2019-01-19T12:24:23.613Z,100950.00
2019-01-19T12:26:56.525Z,100942.00
2019-01-19T12:29:29.234Z,100939.00
2019-01-19T12:32:02.330Z,100938.00
2019-01-19T12:34:35.022Z,100927.00
2019-01-19T12:37:08.059Z,100925.00
2019-01-19T12:39:41.423Z,100917.00
2019-01-19T12:42:14.691Z,100913.00
2019-01-19T12:44:47.799Z,100917.00
2019-01-19T12:47:20.787Z,100910.00
2019-01-19T12:49:53.696Z,100899.00
2019-01-19T12:52:26.484Z,100886.00
2019-01-19T12:54:59.155Z,100897.00
2019-01-19T12:57:32.145Z,100900.00
2019-01-19T13:00:05.209Z,100898.00
2019-01-19T13:02:38.705Z,100887.00
2019-01-19T13:05:13.653Z,100875.00
2019-01-19T13:07:46.522Z,100884.00
2019-01-19T13:10:24.252Z,100879.00
2019-01-19T13:12:57.601Z,100863.00
2019-01-19T13:15:38.180Z,100867.00
2019-01-19T13:18:13.453Z,100859.00
2019-01-19T13:20:47.993Z,100857.00
2019-01-19T13:23:45.121Z,100867.00
2019-01-19T13:26:16.543Z,100867.00
2019-01-19T13:28:57.082Z,100864.00
2019-01-19T13:31:43.823Z,100868.00
2019-01-19T13:34:27.586Z,100874.00
2019-01-19T13:37:08.133Z,100873.00
2019-01-19T13:40:05.906Z,100871.00
2019-01-19T13:42:43.710Z,100868.00
2019-01-19T13:45:30.782Z,100860.00
2019-01-19T13:48:23.393Z,100867.00
2019-01-19T13:51:04.071Z,100856.00
2019-01-19T13:53:55.218Z,100855.00
2019-01-19T13:56:44.588Z,100848.00
2019-01-19T13:59:28.783Z,100854.00
2019-01-19T14:02:38.299Z,100855.00
2019-01-19T14:05:33.691Z,100833.00
2019-01-19T14:08:24.831Z,100827.00
2019-01-19T14:11:21.097Z,100822.00
2019-01-19T14:14:13.339Z,100830.00
2019-01-19T14:16:51.093Z,100831.00
2019-01-19T14:19:28.588Z,100829.00
2019-01-19T14:22:12.625Z,100824.00
2019-01-19T14:25:05.769Z,100827.00
2019-01-19T14:27:55.792Z,100819.00
2019-01-19T14:30:51.948Z,100819.00
2019-01-19T14:33:38.645Z,100816.00
2019-01-19T14:36:20.410Z,100819.00
2019-01-19T14:38:56.801Z,100818.00
2019-01-19T14:41:55.766Z,100815.00
2019-01-19T14:44:39.713Z,100820.00
2019-01-19T14:47:26.322Z,100815.00
2019-01-19T14:50:16.036Z,100807.00
2019-01-19T14:53:05.698Z,100813.00
2019-01-19T14:56:06.112Z,100812.00
2019-01-19T14:58:46.236Z,100819.00
2019-01-19T15:01:42.173Z,100814.00
2019-01-19T15:04:23.150Z,100808.00
2019-01-19T15:07:07.616Z,100807.00
2019-01-19T15:09:42.680Z,100799.00
2019-01-19T15:12:35.374Z,100792.00
2019-01-19T15:15:15.576Z,100788.00
2019-01-19T15:17:58.607Z,100784.00
2019-01-19T15:20:58.763Z,100790.00
2019-01-19T15:23:43.176Z,100803.00
2019-01-19T15:26:37.538Z,100794.00
2019-01-19T15:29:30.536Z,100791.00
2019-01-19T15:32:05.395Z,100793.00
2019-01-19T15:35:13.328Z,100787.00
2019-01-19T15:37:53.427Z,100786.00
2019-01-19T15:40:52.328Z,100788.00
2019-01-19T15:43:43.688Z,100782.00
2019-01-19T15:46:51.916Z,100781.00
2019-01-19T15:49:29.848Z,100782.00
2019-01-19T15:52:13.349Z,100775.00
2019-01-19T15:54:51.352Z,100778.00
2019-01-19T15:57:37.984Z,100779.00
2019-01-19T16:00:31.125Z,100776.00
2019-01-19T16:03:17.889Z,100769.00
2019-01-19T16:06:01.517Z,100776.00
2019-01-19T16:08:52.449Z,100762.00
2019-01-19T16:11:42.394Z,100764.00
2019-01-19T16:14:20.386Z,100758.00
2019-01-19T16:17:13.578Z,100765.00
2019-01-19T16:20:00.243Z,100760.00
2019-01-19T16:22:39.310Z,100743.00
2019-01-19T16:25:23.103Z,100747.00
2019-01-19T16:27:58.223Z,100737.00
2019-01-19T16:30:51.103Z,100739.00
2019-01-19T16:33:40.903Z,100730.00
2019-01-19T16:36:39.500Z,100733.00
2019-01-19T16:39:25.772Z,100740.00
2019-01-19T16:42:05.754Z,100737.00
2019-01-19T16:44:55.812Z,100735.00
2019-01-19T16:47:53.261Z,100741.00
2019-01-19T16:50:46.205Z,100738.00
2019-01-19T16:53:35.975Z,100727.00
2019-01-19T16:56:11.221Z,100737.00
2019-01-19T16:59:04.018Z,100745.00
2019-01-19T17:01:54.101Z,100745.00
2019-01-19T17:04:52.346Z,100749.00
2019-01-19T17:07:30.018Z,100753.00
2019-01-19T17:10:04.423Z,100755.00
2019-01-19T17:12:56.986Z,100763.00
2019-01-19T17:15:40.991Z,100750.00
2019-01-19T17:18:18.954Z,100760.00
2019-01-19T17:21:15.789Z,100752.00
2019-01-19T17:24:08.344Z,100747.00
2019-01-19T17:27:14.471Z,100746.00
2019-01-19T17:30:12.176Z,100756.00
2019-01-19T17:32:52.660Z,100742.00
2019-01-19T17:35:27.205Z,100746.00
2019-01-19T17:38:13.880Z,100730.00
2019-01-19T17:41:00.987Z,100740.00
2019-01-19T17:43:35.647Z,100741.00
2019-01-19T17:46:13.191Z,100733.00
2019-01-19T17:48:53.535Z,100727.00
2019-01-19T17:51:34.064Z,100727.00
2019-01-19T17:54:25.261Z,100723.00
2019-01-19T17:57:02.981Z,100723.00
2019-01-19T17:59:41.178Z,100713.00
2019-01-19T18:02:21.877Z,100724.00
2019-01-19T18:05:11.478Z,100712.00
2019-01-19T18:07:52.362Z,100727.00
2019-01-19T18:10:51.463Z,100733.00
2019-01-19T18:13:41.505Z,100733.00
2019-01-19T18:16:18.987Z,100723.00
2019-01-19T18:18:56.823Z,100726.00
2019-01-19T18:21:37.255Z,100727.00
2019-01-19T18:24:14.452Z,100734.00
2019-01-19T18:27:07.712Z,100729.00
2019-01-19T18:29:55.264Z,100740.00
2019-01-19T18:32:59.943Z,100737.00
2019-01-19T18:35:44.031Z,100750.00
2019-01-19T18:38:44.724Z,100737.00
2019-01-19T18:41:40.448Z,100741.00
2019-01-19T18:44:17.844Z,100739.00
2019-01-19T18:47:22.496Z,100747.00
2019-01-19T18:50:18.766Z,100744.00
2019-01-19T18:53:25.194Z,100739.00
2019-01-19T18:56:09.172Z,100746.00
2019-01-19T18:58:56.255Z,100741.00
2019-01-19T19:01:33.775Z,100747.00
2019-01-19T19:04:30.308Z,100750.00
2019-01-19T19:07:23.224Z,100754.00
2019-01-19T19:10:14.992Z,100757.00
2019-01-19T19:13:22.804Z,100764.00
2019-01-19T19:16:07.228Z,100765.00
2019-01-19T19:19:10.453Z,100764.00
2019-01-19T19:22:04.597Z,100779.00
2019-01-19T19:24:45.709Z,100786.00
2019-01-19T19:27:50.957Z,100790.00
2019-01-19T19:30:41.239Z,100796.00
2019-01-19T19:33:24.730Z,100793.00
2019-01-19T19:36:22.445Z,100792.00
2019-01-19T19:39:16.227Z,100788.00
2019-01-19T19:41:56.994Z,100800.00
2019-01-19T19:44:34.227Z,100793.00
2019-01-19T19:47:14.763Z,100794.00
2019-01-19T19:50:21.618Z,100788.00
2019-01-19T19:52:54.611Z,100788.00
2019-01-19T19:55:25.551Z,100788.00
2019-01-19T19:57:58.487Z,100792.00
2019-01-19T20:00:31.278Z,100797.00
2019-01-19T20:03:04.221Z,100797.00
2019-01-19T20:05:37.260Z,100796.00
2019-01-19T20:08:10.477Z,100799.00
2019-01-19T20:10:43.617Z,100803.00
2019-01-19T20:13:16.257Z,100800.00
2019-01-19T20:15:49.313Z,100803.00
2019-01-19T20:18:22.018Z,100814.00
2019-01-19T20:20:54.994Z,100802.00
2019-01-19T20:23:27.774Z,100806.00
2019-01-19T20:26:00.579Z,100806.00
2019-01-19T20:28:34.259Z,100814.00
2019-01-19T20:31:12.695Z,100808.00
2019-01-19T20:33:47.302Z,100813.00
2019-01-19T20:36:20.091Z,100808.00
2019-01-19T20:38:53.380Z,100804.00
2019-01-19T20:41:26.060Z,100800.00
2019-01-19T20:43:58.839Z,100811.00
2019-01-19T20:46:31.700Z,100854.00
2019-01-19T20:49:04.520Z,100857.00
2019-01-19T20:51:37.430Z,100866.00
2019-01-19T20:54:10.281Z,100862.00
2019-01-19T20:56:43.467Z,100861.00
2019-01-19T20:59:16.162Z,100859.00
2019-01-19T21:01:49.135Z,100864.00
2019-01-19T21:04:21.939Z,100863.00
2019-01-19T21:06:54.897Z,100867.00
2019-01-19T21:09:28.298Z,100867.00
2019-01-19T21:12:01.247Z,100863.00
2019-01-19T21:14:33.953Z,100868.00
2019-01-19T21:17:06.978Z,100870.00
2019-01-19T21:19:39.850Z,100872.00
2019-01-19T21:22:12.755Z,100871.00
2019-01-19T21:24:45.520Z,100878.00
2019-01-19T21:27:18.374Z,100874.00
2019-01-19T21:29:51.627Z,100884.00
2019-01-19T21:32:24.234Z,100881.00
2019-01-19T21:34:57.346Z,100887.00
2019-01-19T21:37:30.314Z,100892.00
2019-01-19T21:40:04.759Z,100890.00
2019-01-19T21:42:37.576Z,100894.00
2019-01-19T21:45:15.327Z,100893.00
2019-01-19T21:47:48.161Z,100891.00
2019-01-19T21:50:21.729Z,100896.00
2019-01-19T21:52:56.297Z,100892.00
2019-01-19T21:55:29.319Z,100895.00
2019-01-19T21:58:02.554Z,100899.00
2019-01-19T22:00:36.062Z,100899.00
2019-01-19T22:03:08.964Z,100891.00
2019-01-19T22:05:42.155Z,100894.00
2019-01-19T22:08:15.898Z,100905.00
2019-01-19T22:10:49.379Z,100902.00
2019-01-19T22:13:22.184Z,100906.00
2019-01-19T22:15:55.163Z,100916.00
2019-01-19T22:18:27.923Z,100918.00
2019-01-19T22:21:00.841Z,100918.00
2019-01-19T22:23:34.700Z,100925.00
2019-01-19T22:26:08.129Z,100933.00
2019-01-19T22:28:41.526Z,100921.00
2019-01-19T22:31:15.141Z,100935.00
2019-01-19T22:33:49.037Z,100933.00
2019-01-19T22:36:21.898Z,100929.00
2019-01-19T22:38:54.819Z,100916.00
2019-01-19T22:41:27.778Z,100923.00
2019-01-19T22:44:00.337Z,100921.00
2019-01-19T22:46:33.071Z,100928.00
2019-01-19T22:49:06.164Z,100920.00
2019-01-19T22:51:39.019Z,100919.00
2019-01-19T22:54:11.897Z,100934.00
2019-01-19T22:56:44.700Z,100945.00
2019-01-19T22:59:17.548Z,100932.00
2019-01-19T23:01:50.727Z,100929.00
2019-01-19T23:04:23.678Z,100922.00
2019-01-19T23:06:56.340Z,100934.00
2019-01-19T23:09:29.440Z,100929.00
2019-01-19T23:12:02.420Z,100917.00
2019-01-19T23:14:36.432Z,100924.00
2019-01-19T23:17:09.112Z,100915.00
2019-01-19T23:19:41.950Z,100919.00
2019-01-19T23:22:14.674Z,100929.00
2019-01-19T23:24:48.327Z,100931.00
2019-01-19T23:27:21.045Z,100921.00
2019-01-19T23:29:54.084Z,100910.00
2019-01-19T23:32:27.020Z,100909.00
2019-01-19T23:34:59.795Z,100900.00
2019-01-19T23:37:32.506Z,100904.00
2019-01-19T23:40:05.210Z,100901.00
2019-01-19T23:42:38.067Z,100908.00
2019-01-19T23:45:12.495Z,100918.00
2019-01-19T23:47:45.139Z,100916.00
2019-01-19T23:50:18.045Z,100907.00
2019-01-19T23:52:50.911Z,100912.00
2019-01-19T23:55:25.057Z,100915.00
2019-01-19T23:57:57.698Z,100911.00
